Time;durP1;ratioP1;P1;durP2;ratioP2;P2;SDS_P1;SDS_P2;PMS_P1;PMS_P2;Temp;Humidity;BMP_temperature;BMP_pressure;BME280_temperature;BME280_humidity;BME280_pressure;Samples;Min_cycle;Max_cycle;Signal;HPM_P1;HPM_P2
2023/01/19 00:01:56;;;;;;;4.00;2.50;;;5.70;57.90;;;;;;6250892;28;20038;-72
2023/01/19 00:04:58;;;;;;;7.97;3.17;;;5.70;57.80;;;;;;6251036;28;20026;-70
2023/01/19 00:08:13;;;;;;;6.45;3.22;;;5.70;57.90;;;;;;6250117;28;20037;-73
2023/01/19 00:11:16;;;;;;;12.90;3.22;;;5.80;58.10;;;;;;6250620;28;20116;-70
2023/01/19 00:14:17;;;;;;;8.27;3.00;;;6.60;58.50;;;;;;6250978;28;20083;-71
2023/01/19 00:17:18;;;;;;;3.97;2.40;;;5.80;58.20;;;;;;6250407;28;20026;-70
2023/01/19 00:20:19;;;;;;;4.57;2.72;;;5.90;58.30;;;;;;6248668;28;20030;-71
2023/01/19 00:23:20;;;;;;;5.93;2.70;;;5.90;58.10;;;;;;6249044;28;20026;-71
2023/01/19 00:26:21;;;;;;;14.95;3.70;;;5.80;57.80;;;;;;6250478;28;20025;-70
2023/01/19 00:29:22;;;;;;;7.07;3.20;;;5.80;58.00;;;;;;6248964;28;20474;-68
2023/01/19 00:32:23;;;;;;;3.85;2.22;;;5.80;58.00;;;;;;6248887;28;20038;-69
2023/01/19 00:35:24;;;;;;;3.17;2.28;;;5.80;57.90;;;;;;6250438;28;20044;-70
2023/01/19 00:38:26;;;;;;;5.68;2.65;;;5.80;58.00;;;;;;6249420;28;20022;-71
2023/01/19 00:44:46;;;;;;;7.15;3.67;;;5.70;58.00;;;;;;6255627;28;20031;-68
2023/01/19 00:47:49;;;;;;;5.60;2.75;;;5.70;58.00;;;;;;6265522;28;20466;-70
2023/01/19 00:50:50;;;;;;;4.80;3.22;;;5.70;58.00;;;;;;6249839;28;20022;-69
2023/01/19 00:53:50;;;;;;;4.90;2.35;;;5.70;58.00;;;;;;6231687;28;20033;-71
2023/01/19 00:56:51;;;;;;;4.25;2.45;;;5.70;58.20;;;;;;6249549;28;20037;-70
2023/01/19 00:59:52;;;;;;;4.88;2.90;;;5.70;58.10;;;;;;6249148;28;20112;-72
2023/01/19 01:02:53;;;;;;;4.25;2.75;;;5.60;58.00;;;;;;6249649;28;20032;-70
2023/01/19 01:05:54;;;;;;;4.15;2.25;;;5.60;58.00;;;;;;6247782;28;20063;-70
2023/01/19 01:08:55;;;;;;;11.23;3.25;;;5.60;58.20;;;;;;6249118;28;20037;-70
2023/01/19 01:11:56;;;;;;;5.88;2.53;;;5.60;58.30;;;;;;6248030;28;20037;-70
2023/01/19 01:14:57;;;;;;;3.70;2.35;;;5.60;58.40;;;;;;6248686;28;20032;-71
2023/01/19 01:17:58;;;;;;;4.78;3.42;;;5.60;58.10;;;;;;6248812;28;20475;-72
2023/01/19 01:21:06;;;;;;;3.88;2.25;;;5.60;58.10;;;;;;6230915;28;20457;-71
2023/01/19 01:24:08;;;;;;;5.93;2.95;;;5.60;58.10;;;;;;6247670;28;20041;-70
2023/01/19 01:27:10;;;;;;;4.50;2.17;;;5.60;57.90;;;;;;6247819;28;20482;-71
2023/01/19 01:30:13;;;;;;;6.13;2.78;;;5.70;58.00;;;;;;6247250;28;20036;-71
2023/01/19 01:33:14;;;;;;;2.78;2.30;;;5.70;58.00;;;;;;6247040;28;20037;-71
2023/01/19 01:36:14;;;;;;;9.88;2.55;;;5.60;58.10;;;;;;6248737;28;20041;-73
2023/01/19 01:39:15;;;;;;;5.07;2.70;;;5.70;58.10;;;;;;6230321;28;20069;-70
2023/01/19 01:42:18;;;;;;;5.35;2.72;;;5.60;58.00;;;;;;6248754;28;20036;-70
2023/01/19 01:45:39;;;;;;;11.13;2.20;;;5.60;58.10;;;;;;6248713;28;20033;-70
2023/01/19 01:48:45;;;;;;;5.03;2.85;;;5.60;58.20;;;;;;6246815;28;20507;-69
2023/01/19 01:51:50;;;;;;;6.90;2.67;;;5.60;58.10;;;;;;6248095;28;20079;-71
2023/01/19 01:54:51;;;;;;;5.07;2.55;;;5.60;58.10;;;;;;6247174;28;20029;-69
2023/01/19 01:57:58;;;;;;;3.25;2.13;;;5.60;58.10;;;;;;6248282;28;20032;-69
2023/01/19 02:04:19;;;;;;;3.22;2.03;;;5.70;58.30;;;;;;6251204;28;20038;-71
2023/01/19 02:14:10;;;;;;;5.10;2.20;;;5.70;57.80;;;;;;6246080;28;20030;-71
2023/01/19 02:17:11;;;;;;;5.97;1.83;;;5.70;57.50;;;;;;6245976;28;20057;-70
2023/01/19 02:20:12;;;;;;;4.13;2.65;;;5.70;57.30;;;;;;6247129;28;20031;-70
2023/01/19 02:23:20;;;;;;;3.30;2.10;;;5.70;57.10;;;;;;6246180;28;20419;-70
2023/01/19 02:26:22;;;;;;;3.42;1.73;;;5.70;56.90;;;;;;6247720;28;20057;-70
2023/01/19 02:29:25;;;;;;;5.95;2.00;;;5.70;56.70;;;;;;6247193;28;20108;-72
2023/01/19 02:32:26;;;;;;;5.97;2.40;;;5.60;56.80;;;;;;6247172;28;20084;-69
2023/01/19 02:35:27;;;;;;;3.90;2.22;;;5.60;56.80;;;;;;6245910;28;20714;-69
2023/01/19 02:38:29;;;;;;;3.42;1.83;;;5.60;56.80;;;;;;6245920;28;20032;-70
2023/01/19 02:41:34;;;;;;;9.68;2.60;;;5.60;56.50;;;;;;6229298;28;20030;-72
2023/01/19 02:44:37;;;;;;;6.18;2.58;;;5.70;56.30;;;;;;6247119;28;20113;-72
2023/01/19 02:47:56;;;;;;;4.20;2.30;;;5.70;56.00;;;;;;6229000;28;20030;-71
2023/01/19 02:51:03;;;;;;;2.63;1.67;;;5.70;56.10;;;;;;6247003;28;20102;-69
2023/01/19 02:54:11;;;;;;;6.32;2.13;;;5.70;56.30;;;;;;6228675;28;20037;-70
2023/01/19 02:57:47;;;;;;;4.70;2.03;;;5.80;56.60;;;;;;6246854;28;20053;-69
2023/01/19 03:00:56;;;;;;;7.97;2.88;;;5.90;57.00;;;;;;6244298;28;20042;-70
2023/01/19 03:04:16;;;;;;;4.97;2.03;;;5.90;57.20;;;;;;6249017;28;20544;-69
2023/01/19 03:07:32;;;;;;;2.20;1.52;;;5.90;57.40;;;;;;6263989;28;20111;-72
2023/01/19 03:10:44;;;;;;;4.38;2.00;;;6.00;57.50;;;;;;6250553;28;20477;-70
2023/01/19 03:13:52;;;;;;;2.47;1.40;;;6.00;57.50;;;;;;6247420;28;20053;-72
2023/01/19 03:17:01;;;;;;;2.38;1.73;;;6.10;57.50;;;;;;6246955;28;20029;-71
2023/01/19 03:20:04;;;;;;;3.67;1.98;;;6.10;57.50;;;;;;6246354;28;20053;-71
2023/01/19 03:23:08;;;;;;;6.63;2.60;;;6.10;57.00;;;;;;6246625;28;20394;-70
2023/01/19 03:26:13;;;;;;;3.42;1.70;;;6.00;56.70;;;;;;6246377;28;20056;-70
2023/01/19 03:29:18;;;;;;;4.25;2.08;;;6.00;57.00;;;;;;6246557;28;20043;-70
2023/01/19 03:32:23;;;;;;;3.03;2.03;;;6.00;57.20;;;;;;6250804;28;20037;-71
2023/01/19 03:35:28;;;;;;;3.55;2.13;;;6.00;57.30;;;;;;6250322;28;20029;-70
2023/01/19 03:38:34;;;;;;;3.05;1.52;;;6.00;57.40;;;;;;6249740;28;20029;-71
2023/01/19 03:41:38;;;;;;;3.15;1.92;;;6.00;57.20;;;;;;6249843;28;20026;-72
2023/01/19 03:44:40;;;;;;;4.00;2.20;;;5.90;57.00;;;;;;6251021;28;20406;-70
2023/01/19 03:47:41;;;;;;;10.10;3.13;;;5.90;57.10;;;;;;6250527;28;20025;-69
2023/01/19 03:50:42;;;;;;;6.28;2.88;;;5.80;57.20;;;;;;6249577;28;20485;-69
2023/01/19 03:53:42;;;;;;;6.03;3.00;;;5.70;57.20;;;;;;6249379;28;20030;-70
2023/01/19 03:56:43;;;;;;;4.95;2.70;;;5.60;57.30;;;;;;6249467;28;20046;-70
2023/01/19 03:59:44;;;;;;;5.13;2.78;;;5.60;57.40;;;;;;6250522;28;20042;-70
2023/01/19 04:02:45;;;;;;;8.02;2.80;;;5.50;57.60;;;;;;6249342;28;20071;-70
2023/01/19 04:05:46;;;;;;;7.75;3.08;;;5.50;57.80;;;;;;6249077;28;20035;-69
2023/01/19 04:08:48;;;;;;;3.53;2.40;;;5.40;57.70;;;;;;6250415;28;20454;-69
2023/01/19 04:11:50;;;;;;;12.13;3.30;;;5.40;57.90;;;;;;6249066;28;20344;-71
2023/01/19 04:14:51;;;;;;;6.43;2.97;;;5.40;58.10;;;;;;6250541;28;20021;-70
2023/01/19 04:17:52;;;;;;;5.25;2.35;;;5.30;58.10;;;;;;6250165;28;20407;-69
2023/01/19 04:20:53;;;;;;;6.13;3.42;;;5.20;58.10;;;;;;6250387;28;20036;-71
2023/01/19 04:23:54;;;;;;;5.43;2.75;;;5.10;58.30;;;;;;6232413;28;20044;-71
2023/01/19 04:26:56;;;;;;;6.63;2.80;;;5.00;58.50;;;;;;6250380;28;20029;-70
2023/01/19 04:29:58;;;;;;;4.97;3.13;;;5.00;58.60;;;;;;6249943;28;20029;-70
2023/01/19 04:32:59;;;;;;;9.73;2.72;;;4.90;58.70;;;;;;6250140;28;20112;-69
2023/01/19 04:36:00;;;;;;;6.65;2.78;;;4.80;58.80;;;;;;6249915;28;20037;-71
2023/01/19 04:39:01;;;;;;;6.47;1.85;;;4.70;58.70;;;;;;6248506;28;20026;-70
2023/01/19 04:42:02;;;;;;;3.90;2.10;;;4.60;58.70;;;;;;6249008;28;20084;-70
2023/01/19 04:45:03;;;;;;;4.05;2.22;;;4.60;58.80;;;;;;6249949;28;20056;-72
2023/01/19 04:48:04;;;;;;;6.75;2.42;;;4.50;58.90;;;;;;6249479;28;20029;-71
2023/01/19 04:51:05;;;;;;;2.65;1.38;;;4.50;59.10;;;;;;6249789;28;20037;-70
2023/01/19 04:54:07;;;;;;;5.10;1.95;;;4.50;59.20;;;;;;6249244;28;20123;-70
2023/01/19 04:57:08;;;;;;;3.33;1.92;;;4.50;59.30;;;;;;6249473;28;20026;-71
2023/01/19 05:00:09;;;;;;;5.00;2.50;;;4.50;59.20;;;;;;6247633;28;20465;-69
2023/01/19 05:03:10;;;;;;;4.28;2.53;;;4.50;59.00;;;;;;6249567;28;20034;-71
2023/01/19 05:06:11;;;;;;;2.80;1.52;;;4.50;58.90;;;;;;6248437;28;20496;-71
2023/01/19 05:09:14;;;;;;;4.57;2.72;;;4.40;58.90;;;;;;6249322;28;20105;-69
2023/01/19 05:12:14;;;;;;;4.65;2.17;;;4.40;59.00;;;;;;6264355;28;20082;-68
2023/01/19 05:15:15;;;;;;;2.53;1.90;;;4.40;59.20;;;;;;6247951;28;20079;-71
2023/01/19 05:18:17;;;;;;;3.67;1.65;;;4.40;59.30;;;;;;6249073;28;20026;-70
2023/01/19 05:21:18;;;;;;;2.83;1.42;;;4.40;59.20;;;;;;6248646;28;20072;-71
2023/01/19 05:24:19;;;;;;;2.40;1.52;;;4.40;59.20;;;;;;6264530;28;20030;-69
2023/01/19 05:27:20;;;;;;;2.20;1.95;;;4.40;59.10;;;;;;6265637;28;20450;-70
2023/01/19 05:30:21;;;;;;;3.33;1.75;;;4.40;59.10;;;;;;6257718;28;20045;-69
2023/01/19 05:33:22;;;;;;;3.33;2.00;;;4.40;59.10;;;;;;6249278;28;20033;-71
2023/01/19 05:36:23;;;;;;;8.27;2.05;;;4.50;59.10;;;;;;6231282;28;20034;-70
2023/01/19 05:39:25;;;;;;;2.65;1.83;;;4.50;59.00;;;;;;6248533;28;20040;-70
2023/01/19 05:42:26;;;;;;;4.90;1.65;;;4.50;59.10;;;;;;6247261;28;20030;-70
2023/01/19 05:45:27;;;;;;;2.72;1.67;;;4.50;59.00;;;;;;6248805;28;20466;-70
2023/01/19 05:48:28;;;;;;;5.90;2.35;;;4.50;58.90;;;;;;6248430;28;20030;-71
2023/01/19 05:51:33;;;;;;;8.95;2.20;;;4.50;58.90;;;;;;6249023;28;20048;-71
2023/01/19 05:54:34;;;;;;;4.63;2.05;;;4.50;59.00;;;;;;6247253;28;20167;-71
2023/01/19 05:57:35;;;;;;;3.30;2.00;;;4.50;58.90;;;;;;6246696;28;20029;-71
2023/01/19 06:00:36;;;;;;;4.30;2.25;;;4.60;59.00;;;;;;6248026;28;20389;-70
2023/01/19 06:03:38;;;;;;;8.35;3.05;;;4.60;58.90;;;;;;6248292;28;20104;-70
2023/01/19 06:06:39;;;;;;;3.65;1.92;;;4.60;58.80;;;;;;6248358;28;20029;-70
2023/01/19 06:09:40;;;;;;;3.92;2.10;;;4.60;58.90;;;;;;6247602;28;20516;-70
2023/01/19 06:12:40;;;;;;;4.75;2.58;;;4.60;58.90;;;;;;6249899;28;20112;-70
2023/01/19 06:15:42;;;;;;;5.78;2.33;;;4.60;58.90;;;;;;6246411;28;20428;-71
2023/01/19 06:18:43;;;;;;;7.03;2.70;;;4.60;58.80;;;;;;6246535;28;20053;-72
2023/01/19 06:21:48;;;;;;;5.22;2.38;;;4.60;58.80;;;;;;6247448;28;20029;-72
2023/01/19 06:24:49;;;;;;;2.95;1.77;;;5.30;59.10;;;;;;6247627;28;20098;-71
2023/01/19 06:27:50;;;;;;;6.13;2.80;;;4.60;58.70;;;;;;6245675;28;20030;-71
2023/01/19 06:30:53;;;;;;;7.90;2.28;;;4.60;58.60;;;;;;6247441;28;20083;-71
2023/01/19 06:33:53;;;;;;;2.08;1.35;;;4.60;58.50;;;;;;6247014;28;20371;-71
2023/01/19 06:36:55;;;;;;;5.72;2.00;;;4.60;58.40;;;;;;6247197;28;20033;-71
2023/01/19 06:39:56;;;;;;;2.97;1.65;;;4.60;58.30;;;;;;6246627;28;20026;-70
2023/01/19 06:42:57;;;;;;;7.60;1.73;;;4.60;58.40;;;;;;6245592;28;20065;-69
2023/01/19 06:45:59;;;;;;;2.00;1.75;;;4.60;58.40;;;;;;6245826;28;20033;-69
2023/01/19 06:49:00;;;;;;;2.92;1.60;;;4.60;58.30;;;;;;6228452;28;20034;-71
2023/01/19 06:52:00;;;;;;;5.25;2.33;;;4.60;58.20;;;;;;6245581;28;20036;-70
2023/01/19 06:55:01;;;;;;;4.68;1.95;;;4.70;58.20;;;;;;6245294;28;20045;-73
2023/01/19 06:58:02;;;;;;;6.45;2.88;;;4.70;58.30;;;;;;6245287;28;20025;-71
2023/01/19 07:01:06;;;;;;;5.03;2.22;;;4.70;58.30;;;;;;6245823;28;20382;-70
2023/01/19 07:04:07;;;;;;;4.47;1.75;;;4.70;58.30;;;;;;6245558;28;20091;-70
2023/01/19 07:07:08;;;;;;;4.15;2.45;;;4.70;58.20;;;;;;6245688;28;20065;-72
2023/01/19 07:10:10;;;;;;;4.90;2.42;;;4.70;58.20;;;;;;6245691;28;20029;-72
2023/01/19 07:13:11;;;;;;;5.70;2.88;;;4.70;58.20;;;;;;6245505;28;20087;-71
2023/01/19 07:16:13;;;;;;;7.15;2.22;;;4.70;58.20;;;;;;6244840;28;20025;-71
2023/01/19 07:19:14;;;;;;;3.78;1.73;;;4.70;58.20;;;;;;6245374;28;20113;-71
2023/01/19 07:22:15;;;;;;;6.75;1.67;;;4.60;58.10;;;;;;6246723;28;20115;-71
2023/01/19 07:25:15;;;;;;;8.95;2.28;;;4.60;58.10;;;;;;6245404;28;20083;-72
2023/01/19 07:28:17;;;;;;;12.95;2.03;;;4.50;58.10;;;;;;6246647;28;20041;-70
2023/01/19 07:31:18;;;;;;;4.45;2.35;;;4.50;58.30;;;;;;6245570;28;20037;-71
2023/01/19 07:34:20;;;;;;;3.58;2.30;;;4.50;58.20;;;;;;6247145;28;20124;-70
2023/01/19 07:37:21;;;;;;;1.65;1.13;;;4.50;58.30;;;;;;6247319;28;20025;-71
2023/01/19 07:40:22;;;;;;;3.60;2.35;;;4.40;58.50;;;;;;6247594;28;20081;-71
2023/01/19 07:43:23;;;;;;;1.95;1.27;;;4.50;58.70;;;;;;6260151;28;20025;-68
2023/01/19 07:46:24;;;;;;;5.45;1.98;;;4.50;58.80;;;;;;6246852;28;20136;-71
2023/01/19 07:49:25;;;;;;;4.43;2.00;;;4.50;58.70;;;;;;6246727;28;20025;-71
2023/01/19 07:52:26;;;;;;;3.15;2.00;;;4.60;58.80;;;;;;6246816;28;20132;-71
2023/01/19 07:55:27;;;;;;;4.93;1.98;;;4.50;58.80;;;;;;6245984;28;20064;-71
2023/01/19 07:58:28;;;;;;;3.72;1.67;;;4.50;58.70;;;;;;6245141;28;20061;-71
2023/01/19 08:01:30;;;;;;;3.45;2.38;;;4.50;58.70;;;;;;6246597;28;20022;-72
2023/01/19 08:04:30;;;;;;;13.52;2.65;;;4.50;58.60;;;;;;6245789;28;20029;-70
2023/01/19 08:07:33;;;;;;;4.03;2.47;;;4.50;58.60;;;;;;6228490;28;20089;-71
2023/01/19 08:10:34;;;;;;;4.75;2.38;;;4.60;58.50;;;;;;6246426;28;20464;-70
2023/01/19 08:13:35;;;;;;;3.45;2.03;;;4.60;58.40;;;;;;6245128;28;20053;-71
2023/01/19 08:16:36;;;;;;;2.45;2.00;;;4.70;58.30;;;;;;6248720;28;20104;-72
2023/01/19 08:19:37;;;;;;;4.32;2.85;;;4.70;58.00;;;;;;6249168;28;20111;-71
2023/01/19 08:22:38;;;;;;;6.60;2.70;;;4.80;57.90;;;;;;6233096;28;20388;-70
2023/01/19 08:25:45;;;;;;;6.30;2.40;;;4.90;58.00;;;;;;6251427;28;20036;-71
2023/01/19 08:28:46;;;;;;;3.95;2.17;;;4.90;58.10;;;;;;6250357;28;20421;-71
2023/01/19 08:31:47;;;;;;;8.55;3.38;;;5.00;58.20;;;;;;6234016;28;20041;-72
2023/01/19 08:34:47;;;;;;;5.88;2.85;;;5.10;58.20;;;;;;6251109;28;20064;-71
2023/01/19 08:37:49;;;;;;;7.78;3.25;;;5.20;58.20;;;;;;6251404;28;20025;-70
2023/01/19 08:40:50;;;;;;;4.72;1.67;;;5.20;58.00;;;;;;6252818;28;20420;-73
2023/01/19 08:43:51;;;;;;;6.95;2.75;;;5.30;57.80;;;;;;6234318;28;20029;-72
2023/01/19 08:46:52;;;;;;;5.15;3.25;;;5.40;57.80;;;;;;6249614;28;20040;-71
2023/01/19 08:49:52;;;;;;;6.40;2.38;;;5.50;57.90;;;;;;6250215;28;20033;-72
2023/01/19 08:53:01;;;;;;;3.22;2.10;;;5.60;57.90;;;;;;6250110;28;20037;-73
2023/01/19 08:56:02;;;;;;;;;;;5.70;57.90;;;;;;6232476;28;20482;-69
2023/01/19 08:59:03;;;;;;;5.32;2.35;;;5.70;57.00;;;;;;6248080;28;19909;-71
2023/01/19 09:02:04;;;;;;;6.45;3.45;;;5.80;57.10;;;;;;6249559;28;20113;-72
2023/01/19 09:05:05;;;;;;;6.90;3.08;;;5.90;57.20;;;;;;6249240;28;20033;-71
2023/01/19 09:08:12;;;;;;;5.20;3.47;;;6.10;57.10;;;;;;6248501;28;20128;-70
2023/01/19 09:11:15;;;;;;;6.75;3.28;;;6.20;56.80;;;;;;6249060;28;20389;-70
2023/01/19 09:14:21;;;;;;;7.82;2.85;;;6.30;56.60;;;;;;6250210;28;20030;-71
2023/01/19 09:17:25;;;;;;;6.93;4.28;;;6.40;56.60;;;;;;6249787;28;20090;-71
2023/01/19 09:20:27;;;;;;;12.30;4.43;;;6.40;56.10;;;;;;6248970;28;20382;-69
2023/01/19 09:23:28;;;;;;;11.05;3.70;;;6.40;56.10;;;;;;6250223;28;20029;-69
2023/01/19 09:26:29;;;;;;;9.68;4.32;;;6.40;56.10;;;;;;6250228;28;20061;-70
2023/01/19 09:29:30;;;;;;;10.23;4.65;;;6.40;55.90;;;;;;6232500;28;20422;-71
2023/01/19 09:32:31;;;;;;;6.00;3.60;;;6.50;55.80;;;;;;6247813;28;20037;-70
2023/01/19 09:35:35;;;;;;;11.15;3.70;;;6.50;55.80;;;;;;6247389;28;20143;-71
2023/01/19 09:38:37;;;;;;;4.82;2.72;;;6.60;55.70;;;;;;6247298;28;20367;-70
2023/01/19 09:41:43;;;;;;;7.75;3.17;;;6.70;55.70;;;;;;6248671;28;20456;-70
2023/01/19 09:44:46;;;;;;;17.58;3.25;;;6.70;55.30;;;;;;6248975;28;20034;-68
2023/01/19 09:47:48;;;;;;;12.35;3.55;;;6.70;54.80;;;;;;6247632;28;20052;-70
2023/01/19 09:50:49;;;;;;;8.25;3.70;;;6.60;55.10;;;;;;6248856;28;20029;-70
2023/01/19 09:54:02;;;;;;;10.80;4.10;;;6.70;55.20;;;;;;6250373;28;20124;-70
2023/01/19 09:57:09;;;;;;;11.02;5.05;;;6.80;55.10;;;;;;6251028;28;20088;-69
2023/01/19 10:00:17;;;;;;;12.75;4.00;;;6.90;55.00;;;;;;6256503;28;20033;-71
2023/01/19 10:03:19;;;;;;;7.43;4.05;;;7.10;55.10;;;;;;6254123;28;20029;-70
2023/01/19 10:06:21;;;;;;;7.65;4.03;;;7.20;55.00;;;;;;6251493;28;20030;-70
2023/01/19 10:09:45;;;;;;;7.72;2.90;;;7.50;54.30;;;;;;6249092;28;20033;-69
2023/01/19 10:13:23;;;;;;;8.80;3.92;;;7.40;54.30;;;;;;6249352;28;20490;-68
2023/01/19 10:16:33;;;;;;;11.23;3.53;;;7.70;54.10;;;;;;6248256;28;20037;-69
2023/01/19 10:19:50;;;;;;;9.38;3.67;;;8.00;54.10;;;;;;6246209;28;20080;-71
2023/01/19 10:22:52;;;;;;;5.53;2.83;;;8.10;54.30;;;;;;6247655;28;20128;-69
2023/01/19 10:25:54;;;;;;;12.85;3.60;;;8.00;53.40;;;;;;6247657;28;20025;-69
2023/01/19 10:29:01;;;;;;;7.65;3.75;;;8.10;53.50;;;;;;6247163;28;20037;-70
2023/01/19 10:32:12;;;;;;;5.13;3.05;;;8.10;53.40;;;;;;6249617;28;20121;-70
2023/01/19 10:35:24;;;;;;;6.85;3.33;;;8.20;53.50;;;;;;6231238;28;20074;-70
2023/01/19 10:38:27;;;;;;;11.18;3.95;;;8.40;53.70;;;;;;6245265;28;20040;-71
2023/01/19 10:41:42;;;;;;;12.25;3.97;;;8.70;53.70;;;;;;6245556;28;20033;-71
2023/01/19 10:44:44;;;;;;;7.97;4.10;;;8.90;53.30;;;;;;6245915;28;20036;-71
2023/01/19 10:47:47;;;;;;;7.47;3.85;;;9.00;52.50;;;;;;6246067;28;20025;-69
2023/01/19 10:51:04;;;;;;;9.15;4.20;;;9.00;52.30;;;;;;6245391;28;20037;-69
2023/01/19 10:54:11;;;;;;;6.20;4.28;;;9.00;52.10;;;;;;6246140;28;20034;-71
2023/01/19 10:57:24;;;;;;;10.95;4.10;;;8.90;52.20;;;;;;6245592;28;20112;-69
2023/01/19 11:00:36;;;;;;;8.90;3.55;;;9.00;52.30;;;;;;6246558;28;20033;-69
2023/01/19 11:03:37;;;;;;;10.20;3.17;;;9.10;52.20;;;;;;6245258;28;20033;-69
2023/01/19 11:06:38;;;;;;;6.80;3.88;;;9.10;52.10;;;;;;6246428;28;20060;-69
2023/01/19 11:09:39;;;;;;;8.23;4.45;;;9.10;51.70;;;;;;6244577;28;20030;-69
2023/01/19 11:12:59;;;;;;;8.10;3.95;;;9.00;51.50;;;;;;6246495;28;20048;-69
2023/01/19 11:16:28;;;;;;;6.72;3.75;;;9.00;51.60;;;;;;6229162;28;20051;-68
2023/01/19 11:19:31;;;;;;;8.40;3.40;;;8.90;51.60;;;;;;6246053;28;20032;-69
2023/01/19 11:22:33;;;;;;;10.90;3.65;;;8.90;51.40;;;;;;6246428;28;20462;-68
2023/01/19 11:25:35;;;;;;;15.55;5.50;;;8.80;51.20;;;;;;6241868;28;20037;-69
2023/01/19 11:28:44;;;;;;;6.70;3.58;;;8.80;51.30;;;;;;6228704;28;20069;-71
2023/01/19 11:31:45;;;;;;;12.60;4.13;;;8.80;51.30;;;;;;6225399;28;20379;-70
2023/01/19 11:34:47;;;;;;;8.60;3.63;;;8.80;51.20;;;;;;6245866;28;20034;-70
2023/01/19 11:37:48;;;;;;;9.35;4.60;;;8.90;51.00;;;;;;6244217;28;20021;-69
2023/01/19 11:40:57;;;;;;;9.57;4.88;;;8.90;51.10;;;;;;6244758;28;20477;-69
2023/01/19 11:44:20;;;;;;;14.23;4.75;;;9.00;51.10;;;;;;6245739;28;20033;-69
2023/01/19 11:47:39;;;;;;;9.55;4.57;;;9.00;51.20;;;;;;6244202;28;20026;-68
2023/01/19 11:50:42;;;;;;;10.02;4.57;;;9.00;51.00;;;;;;6246135;28;20128;-69
2023/01/19 11:53:50;;;;;;;11.23;4.18;;;9.10;51.10;;;;;;6250716;28;20032;-71
2023/01/19 11:56:52;;;;;;;16.67;5.07;;;9.20;50.90;;;;;;6226342;28;20382;-69
2023/01/19 11:59:53;;;;;;;7.82;3.88;;;9.20;50.50;;;;;;6225510;28;20476;-68
2023/01/19 12:03:22;;;;;;;8.55;3.53;;;9.20;50.50;;;;;;6225614;28;20471;-71
2023/01/19 12:06:30;;;;;;;8.30;3.60;;;9.20;50.10;;;;;;6225872;28;20037;-68
2023/01/19 12:09:44;;;;;;;11.23;3.72;;;9.20;50.00;;;;;;6224111;28;20269;-68
2023/01/19 12:12:46;;;;;;;9.00;3.60;;;9.10;50.00;;;;;;6224067;28;20042;-69
2023/01/19 12:15:49;;;;;;;4.47;2.50;;;9.10;49.90;;;;;;6225660;28;20845;-70
2023/01/19 12:19:04;;;;;;;7.78;3.22;;;9.20;49.80;;;;;;6225996;28;20026;-71
2023/01/19 12:22:05;;;;;;;5.93;2.72;;;9.20;49.80;;;;;;6226301;28;20080;-70
2023/01/19 12:25:52;;;;;;;6.10;2.88;;;9.30;49.80;;;;;;6229384;28;20037;-70
2023/01/19 12:28:57;;;;;;;12.60;2.28;;;9.40;49.30;;;;;;6257548;28;20124;-69
2023/01/19 12:32:16;;;;;;;8.63;3.40;;;9.40;49.00;;;;;;6251208;28;20042;-70
2023/01/19 12:35:55;;;;;;;8.10;2.55;;;9.50;48.50;;;;;;6231582;28;20131;-71
2023/01/19 12:39:18;;;;;;;5.72;2.25;;;9.60;48.20;;;;;;6246494;28;20042;-69
2023/01/19 12:42:19;;;;;;;5.78;2.20;;;9.60;47.90;;;;;;6247225;28;20045;-69
2023/01/19 12:45:24;;;;;;;9.00;2.38;;;9.60;47.30;;;;;;6247016;28;20087;-69
2023/01/19 12:48:26;;;;;;;5.05;2.13;;;9.70;47.30;;;;;;6246685;28;20095;-69
2023/01/19 12:51:27;;;;;;;5.40;2.28;;;9.80;47.00;;;;;;6246828;28;20052;-69
2023/01/19 12:54:30;;;;;;;10.02;3.08;;;9.80;46.80;;;;;;6246382;28;20061;-69
2023/01/19 12:58:04;;;;;;;3.05;1.88;;;9.80;47.00;;;;;;6229557;28;20052;-69
2023/01/19 13:01:18;;;;;;;5.95;2.33;;;9.80;46.90;;;;;;6245729;28;20030;-68
2023/01/19 13:04:31;;;;;;;6.18;2.63;;;9.80;46.50;;;;;;6230301;28;20038;-69
2023/01/19 13:08:10;;;;;;;4.63;2.47;;;9.70;46.40;;;;;;6246053;28;20112;-69
2023/01/19 13:11:16;;;;;;;11.85;3.40;;;9.60;46.80;;;;;;6232626;28;20038;-70
2023/01/19 13:14:34;;;;;;;5.80;2.42;;;9.70;46.80;;;;;;6210267;28;20029;-69
2023/01/19 13:17:54;;;;;;;5.68;2.53;;;9.70;46.60;;;;;;6240280;28;20041;-69
2023/01/19 13:20:58;;;;;;;3.53;2.28;;;9.80;46.50;;;;;;6244288;28;20112;-69
2023/01/19 13:24:24;;;;;;;4.57;2.45;;;9.80;46.40;;;;;;6248720;28;20041;-70
2023/01/19 13:27:46;;;;;;;4.25;2.53;;;9.80;46.30;;;;;;6246586;28;20128;-70
2023/01/19 13:30:56;;;;;;;11.38;3.30;;;9.70;46.40;;;;;;6248127;28;20075;-70
2023/01/19 13:34:00;;;;;;;3.65;2.60;;;9.70;46.50;;;;;;6248116;28;20385;-69
2023/01/19 13:37:02;;;;;;;5.95;1.77;;;9.70;46.30;;;;;;6248047;28;20474;-69
2023/01/19 13:40:03;;;;;;;3.33;2.17;;;9.60;46.00;;;;;;6229780;28;20478;-72
2023/01/19 13:43:14;;;;;;;5.80;2.20;;;9.60;45.70;;;;;;6247519;28;20045;-71
2023/01/19 13:46:18;;;;;;;7.18;2.70;;;9.50;45.50;;;;;;6246386;28;20109;-70
2023/01/19 13:49:21;;;;;;;2.78;1.90;;;9.40;45.10;;;;;;6246185;28;20033;-69
2023/01/19 13:52:23;;;;;;;5.57;2.50;;;9.20;45.00;;;;;;6247266;28;20037;-69
2023/01/19 13:55:27;;;;;;;5.10;2.83;;;9.10;45.40;;;;;;6245714;28;20041;-70
2023/01/19 13:58:29;;;;;;;4.65;2.33;;;9.00;45.90;;;;;;6245667;28;20437;-70
2023/01/19 14:01:31;;;;;;;5.63;2.63;;;8.90;46.00;;;;;;6229649;28;20030;-70
2023/01/19 14:04:33;;;;;;;4.78;2.20;;;8.90;46.10;;;;;;6247691;28;20033;-70
2023/01/19 14:07:33;;;;;;;5.35;2.95;;;8.90;46.30;;;;;;6246925;28;20033;-71
2023/01/19 14:10:37;;;;;;;2.83;1.90;;;8.80;46.30;;;;;;6246145;28;20067;-68
2023/01/19 14:13:43;;;;;;;6.20;2.45;;;8.80;46.60;;;;;;6247126;28;20025;-70
2023/01/19 14:16:44;;;;;;;3.08;1.90;;;8.80;46.70;;;;;;6248638;28;20029;-68
2023/01/19 14:19:50;;;;;;;4.22;2.20;;;8.80;46.40;;;;;;6249007;28;20022;-69
2023/01/19 14:22:51;;;;;;;5.32;2.10;;;8.70;46.20;;;;;;6248717;28;20029;-70
2023/01/19 14:25:52;;;;;;;4.00;2.15;;;8.60;46.20;;;;;;6245974;28;20026;-70
2023/01/19 14:28:53;;;;;;;6.22;2.80;;;8.60;46.40;;;;;;6246959;28;20087;-69
2023/01/19 14:32:00;;;;;;;3.70;2.10;;;8.60;46.20;;;;;;6245602;28;20124;-70
2023/01/19 14:35:04;;;;;;;5.03;2.28;;;8.60;46.20;;;;;;6229097;28;20044;-70
2023/01/19 14:38:12;;;;;;;3.97;2.38;;;8.60;46.40;;;;;;6245769;28;20033;-70
2023/01/19 14:41:42;;;;;;;6.70;2.47;;;8.60;46.50;;;;;;6246959;28;20022;-70
2023/01/19 14:44:48;;;;;;;11.45;2.60;;;8.70;46.50;;;;;;6246442;28;20513;-72
2023/01/19 14:48:02;;;;;;;7.22;2.85;;;8.70;46.50;;;;;;6246482;28;20064;-71
2023/01/19 14:51:04;;;;;;;5.53;2.67;;;8.70;46.50;;;;;;6246951;28;20033;-70
2023/01/19 14:54:15;;;;;;;5.97;2.38;;;8.70;46.60;;;;;;6246477;28;20052;-70
2023/01/19 14:57:16;;;;;;;5.35;2.60;;;8.70;46.80;;;;;;6246786;28;20028;-71
2023/01/19 15:00:18;;;;;;;5.65;2.95;;;8.70;47.00;;;;;;6229128;28;20103;-71
2023/01/19 15:03:19;;;;;;;7.82;3.00;;;8.70;46.80;;;;;;6245406;28;20033;-69
2023/01/19 15:06:21;;;;;;;5.07;2.83;;;8.60;46.80;;;;;;6247140;28;20044;-69
2023/01/19 15:09:23;;;;;;;5.20;2.53;;;8.60;47.00;;;;;;6231799;28;20478;-69
2023/01/19 15:12:26;;;;;;;6.00;2.70;;;8.50;47.10;;;;;;6243319;28;20410;-70
2023/01/19 15:15:33;;;;;;;7.45;3.55;;;8.40;47.20;;;;;;6221638;28;20121;-71
2023/01/19 15:18:34;;;;;;;4.82;2.58;;;8.20;47.40;;;;;;6224591;28;20037;-69
2023/01/19 15:21:35;;;;;;;8.07;3.08;;;8.10;47.80;;;;;;6222029;28;20052;-71
2023/01/19 15:24:36;;;;;;;5.63;2.58;;;8.00;48.10;;;;;;6220996;28;20478;-69
2023/01/19 15:27:36;;;;;;;20.20;3.00;;;8.00;48.10;;;;;;6226828;28;20072;-68
2023/01/19 15:30:38;;;;;;;4.80;2.75;;;7.90;48.30;;;;;;6249803;28;20064;-69
2023/01/19 15:33:38;;;;;;;5.40;2.75;;;7.80;48.50;;;;;;6251067;28;20069;-70
2023/01/19 15:36:41;;;;;;;8.90;3.33;;;7.80;48.60;;;;;;6251078;28;20051;-70
2023/01/19 15:39:42;;;;;;;3.92;2.35;;;7.70;48.70;;;;;;6250616;28;20124;-70
2023/01/19 15:42:43;;;;;;;8.73;3.45;;;7.60;48.90;;;;;;6251291;28;20087;-70
2023/01/19 15:46:00;;;;;;;7.53;3.30;;;7.60;48.90;;;;;;6249138;28;20107;-70
2023/01/19 15:49:01;;;;;;;7.20;3.10;;;7.60;49.00;;;;;;6250141;28;20033;-70
2023/01/19 15:52:03;;;;;;;5.95;3.13;;;7.50;49.20;;;;;;6250375;28;20037;-70
2023/01/19 15:55:04;;;;;;;7.90;3.58;;;7.60;49.30;;;;;;6250538;28;20071;-71
2023/01/19 15:58:05;;;;;;;8.75;2.97;;;7.60;49.40;;;;;;6250121;28;20100;-72
2023/01/19 16:01:10;;;;;;;6.70;3.38;;;7.60;49.50;;;;;;6250328;28;20489;-70
2023/01/19 16:04:12;;;;;;;5.50;2.92;;;7.60;49.60;;;;;;6249116;28;20397;-70
2023/01/19 16:07:12;;;;;;;6.45;3.30;;;7.60;49.70;;;;;;6249344;28;20417;-70
2023/01/19 16:10:15;;;;;;;6.72;2.83;;;7.60;49.60;;;;;;6246259;28;20046;-71
2023/01/19 16:13:16;;;;;;;9.63;2.80;;;7.60;49.50;;;;;;6237294;28;20325;-70
2023/01/19 16:16:20;;;;;;;7.07;2.42;;;7.60;49.30;;;;;;6243831;28;20030;-71
2023/01/19 16:19:21;;;;;;;14.65;3.53;;;7.60;49.30;;;;;;6232826;28;20091;-70
2023/01/19 16:22:22;;;;;;;9.35;3.25;;;7.60;49.20;;;;;;6223650;28;20041;-71
2023/01/19 16:25:23;;;;;;;7.05;2.95;;;7.60;49.00;;;;;;6234407;28;20547;-69